sensor_id;sensor_type;location;lat;lon;timestamp;P1;durP1;ratioP1;P2;durP2;ratioP2
3463;SDS011;3551;41.578;24.706;2022-09-13T00:02:16;11.10;;;7.77;;
3463;SDS011;3551;41.578;24.706;2022-09-13T00:04:43;12.80;;;7.90;;
3463;SDS011;3551;41.578;24.706;2022-09-13T00:07:09;8.93;;;7.97;;
3463;SDS011;3551;41.578;24.706;2022-09-13T00:09:36;10.47;;;8.07;;
3463;SDS011;3551;41.578;24.706;2022-09-13T00:12:04;13.43;;;8.20;;
3463;SDS011;3551;41.578;24.706;2022-09-13T00:14:31;12.80;;;8.20;;
3463;SDS011;3551;41.578;24.706;2022-09-13T00:16:59;12.53;;;8.33;;
3463;SDS011;3551;41.578;24.706;2022-09-13T00:19:26;12.33;;;8.17;;
3463;SDS011;3551;41.578;24.706;2022-09-13T00:21:53;11.37;;;9.00;;
3463;SDS011;3551;41.578;24.706;2022-09-13T00:24:20;12.70;;;7.80;;
3463;SDS011;3551;41.578;24.706;2022-09-13T00:26:46;9.57;;;8.53;;
3463;SDS011;3551;41.578;24.706;2022-09-13T00:29:13;13.37;;;9.00;;
3463;SDS011;3551;41.578;24.706;2022-09-13T00:31:40;10.00;;;8.30;;
3463;SDS011;3551;41.578;24.706;2022-09-13T00:34:09;10.07;;;8.13;;
3463;SDS011;3551;41.578;24.706;2022-09-13T00:36:36;10.00;;;8.53;;
3463;SDS011;3551;41.578;24.706;2022-09-13T00:39:02;13.00;;;9.30;;
3463;SDS011;3551;41.578;24.706;2022-09-13T00:41:29;10.30;;;8.03;;
3463;SDS011;3551;41.578;24.706;2022-09-13T00:43:57;10.93;;;8.37;;
3463;SDS011;3551;41.578;24.706;2022-09-13T00:46:27;10.40;;;8.47;;
3463;SDS011;3551;41.578;24.706;2022-09-13T00:49:02;9.70;;;6.70;;
3463;SDS011;3551;41.578;24.706;2022-09-13T00:51:38;9.23;;;7.83;;
3463;SDS011;3551;41.578;24.706;2022-09-13T00:54:06;8.80;;;7.90;;
3463;SDS011;3551;41.578;24.706;2022-09-13T00:56:34;9.00;;;7.50;;
3463;SDS011;3551;41.578;24.706;2022-09-13T00:59:05;11.13;;;8.53;;
3463;SDS011;3551;41.578;24.706;2022-09-13T01:01:36;11.23;;;8.40;;
3463;SDS011;3551;41.578;24.706;2022-09-13T01:04:08;9.50;;;8.27;;
3463;SDS011;3551;41.578;24.706;2022-09-13T01:06:35;13.93;;;8.83;;
3463;SDS011;3551;41.578;24.706;2022-09-13T01:09:05;11.13;;;8.30;;
3463;SDS011;3551;41.578;24.706;2022-09-13T01:11:35;12.30;;;8.50;;
3463;SDS011;3551;41.578;24.706;2022-09-13T01:14:11;10.40;;;8.60;;
3463;SDS011;3551;41.578;24.706;2022-09-13T01:16:39;14.93;;;7.50;;
3463;SDS011;3551;41.578;24.706;2022-09-13T01:19:06;10.57;;;8.03;;
3463;SDS011;3551;41.578;24.706;2022-09-13T01:30:35;9.50;;;8.10;;
3463;SDS011;3551;41.578;24.706;2022-09-13T01:33:12;12.67;;;9.67;;
3463;SDS011;3551;41.578;24.706;2022-09-13T01:35:54;10.73;;;8.20;;
3463;SDS011;3551;41.578;24.706;2022-09-13T01:38:37;9.67;;;8.33;;
3463;SDS011;3551;41.578;24.706;2022-09-13T01:41:17;9.67;;;7.77;;
3463;SDS011;3551;41.578;24.706;2022-09-13T01:43:57;13.37;;;8.33;;
3463;SDS011;3551;41.578;24.706;2022-09-13T01:46:38;9.63;;;7.57;;
3463;SDS011;3551;41.578;24.706;2022-09-13T01:49:14;9.30;;;8.03;;
3463;SDS011;3551;41.578;24.706;2022-09-13T01:51:47;12.70;;;7.77;;
3463;SDS011;3551;41.578;24.706;2022-09-13T01:54:20;10.27;;;7.53;;
3463;SDS011;3551;41.578;24.706;2022-09-13T01:56:54;14.97;;;7.50;;
3463;SDS011;3551;41.578;24.706;2022-09-13T01:59:28;7.90;;;5.87;;
3463;SDS011;3551;41.578;24.706;2022-09-13T02:02:07;6.57;;;5.30;;
3463;SDS011;3551;41.578;24.706;2022-09-13T02:04:42;8.17;;;5.30;;
3463;SDS011;3551;41.578;24.706;2022-09-13T02:07:15;6.10;;;4.53;;
3463;SDS011;3551;41.578;24.706;2022-09-13T02:09:45;5.50;;;3.50;;
3463;SDS011;3551;41.578;24.706;2022-09-13T02:12:16;4.70;;;3.70;;
3463;SDS011;3551;41.578;24.706;2022-09-13T02:14:47;4.93;;;3.73;;
3463;SDS011;3551;41.578;24.706;2022-09-13T02:17:21;4.80;;;3.63;;
3463;SDS011;3551;41.578;24.706;2022-09-13T02:19:51;3.70;;;2.67;;
3463;SDS011;3551;41.578;24.706;2022-09-13T02:22:25;3.50;;;2.87;;
3463;SDS011;3551;41.578;24.706;2022-09-13T02:24:56;3.90;;;3.20;;
3463;SDS011;3551;41.578;24.706;2022-09-13T02:27:27;4.00;;;2.90;;
3463;SDS011;3551;41.578;24.706;2022-09-13T02:30:00;2.83;;;2.30;;
3463;SDS011;3551;41.578;24.706;2022-09-13T02:32:32;7.00;;;2.73;;
3463;SDS011;3551;41.578;24.706;2022-09-13T02:35:04;5.10;;;2.70;;
3463;SDS011;3551;41.578;24.706;2022-09-13T02:37:34;6.33;;;3.33;;
3463;SDS011;3551;41.578;24.706;2022-09-13T02:40:06;3.40;;;2.47;;
3463;SDS011;3551;41.578;24.706;2022-09-13T02:42:37;3.63;;;3.00;;
3463;SDS011;3551;41.578;24.706;2022-09-13T02:45:08;3.30;;;2.30;;
3463;SDS011;3551;41.578;24.706;2022-09-13T02:47:40;7.00;;;3.10;;
3463;SDS011;3551;41.578;24.706;2022-09-13T02:50:20;3.10;;;2.47;;
3463;SDS011;3551;41.578;24.706;2022-09-13T02:53:01;3.00;;;2.40;;
3463;SDS011;3551;41.578;24.706;2022-09-13T02:55:37;2.83;;;2.10;;
3463;SDS011;3551;41.578;24.706;2022-09-13T02:58:09;4.63;;;3.23;;
3463;SDS011;3551;41.578;24.706;2022-09-13T03:00:40;3.87;;;2.50;;
3463;SDS011;3551;41.578;24.706;2022-09-13T03:03:10;3.27;;;2.50;;
3463;SDS011;3551;41.578;24.706;2022-09-13T03:05:40;3.53;;;2.43;;
3463;SDS011;3551;41.578;24.706;2022-09-13T03:08:08;4.57;;;2.60;;
3463;SDS011;3551;41.578;24.706;2022-09-13T03:10:41;3.23;;;2.53;;
3463;SDS011;3551;41.578;24.706;2022-09-13T03:16:18;2.87;;;2.20;;
3463;SDS011;3551;41.578;24.706;2022-09-13T03:19:08;3.53;;;2.70;;
3463;SDS011;3551;41.578;24.706;2022-09-13T03:21:53;6.17;;;2.50;;
3463;SDS011;3551;41.578;24.706;2022-09-13T03:24:35;5.63;;;2.23;;
3463;SDS011;3551;41.578;24.706;2022-09-13T03:27:12;4.30;;;2.50;;
3463;SDS011;3551;41.578;24.706;2022-09-13T03:29:49;4.30;;;2.70;;
3463;SDS011;3551;41.578;24.706;2022-09-13T03:32:23;2.87;;;2.30;;
3463;SDS011;3551;41.578;24.706;2022-09-13T03:35:01;3.47;;;2.50;;
3463;SDS011;3551;41.578;24.706;2022-09-13T03:37:34;7.40;;;3.10;;
3463;SDS011;3551;41.578;24.706;2022-09-13T03:40:11;4.57;;;2.67;;
3463;SDS011;3551;41.578;24.706;2022-09-13T03:42:42;4.17;;;3.00;;
3463;SDS011;3551;41.578;24.706;2022-09-13T03:45:13;4.03;;;2.83;;
3463;SDS011;3551;41.578;24.706;2022-09-13T03:47:47;4.27;;;3.07;;
3463;SDS011;3551;41.578;24.706;2022-09-13T03:50:20;4.00;;;2.87;;
3463;SDS011;3551;41.578;24.706;2022-09-13T03:52:49;4.60;;;2.53;;
3463;SDS011;3551;41.578;24.706;2022-09-13T03:55:22;4.00;;;2.90;;
3463;SDS011;3551;41.578;24.706;2022-09-13T03:57:50;5.10;;;2.43;;
3463;SDS011;3551;41.578;24.706;2022-09-13T04:00:17;9.67;;;2.60;;
3463;SDS011;3551;41.578;24.706;2022-09-13T04:02:45;4.07;;;2.87;;
3463;SDS011;3551;41.578;24.706;2022-09-13T04:05:12;7.00;;;2.80;;
3463;SDS011;3551;41.578;24.706;2022-09-13T04:07:40;5.93;;;3.33;;
3463;SDS011;3551;41.578;24.706;2022-09-13T04:10:08;9.77;;;3.20;;
3463;SDS011;3551;41.578;24.706;2022-09-13T04:12:35;3.60;;;2.50;;
3463;SDS011;3551;41.578;24.706;2022-09-13T04:15:03;4.10;;;2.30;;
3463;SDS011;3551;41.578;24.706;2022-09-13T04:17:30;3.30;;;2.53;;
3463;SDS011;3551;41.578;24.706;2022-09-13T04:19:57;6.33;;;3.40;;
3463;SDS011;3551;41.578;24.706;2022-09-13T04:22:24;3.17;;;2.63;;
3463;SDS011;3551;41.578;24.706;2022-09-13T04:24:52;5.87;;;2.83;;
3463;SDS011;3551;41.578;24.706;2022-09-13T04:27:19;3.40;;;2.37;;
3463;SDS011;3551;41.578;24.706;2022-09-13T04:29:47;3.50;;;2.60;;
3463;SDS011;3551;41.578;24.706;2022-09-13T04:32:14;3.90;;;2.63;;
3463;SDS011;3551;41.578;24.706;2022-09-13T04:34:40;3.07;;;2.23;;
3463;SDS011;3551;41.578;24.706;2022-09-13T04:37:08;9.90;;;2.80;;
3463;SDS011;3551;41.578;24.706;2022-09-13T04:39:35;4.80;;;2.47;;
3463;SDS011;3551;41.578;24.706;2022-09-13T04:42:04;7.30;;;3.00;;
3463;SDS011;3551;41.578;24.706;2022-09-13T04:44:32;8.33;;;3.00;;
3463;SDS011;3551;41.578;24.706;2022-09-13T04:46:59;4.00;;;2.40;;
3463;SDS011;3551;41.578;24.706;2022-09-13T04:49:26;5.50;;;3.10;;
3463;SDS011;3551;41.578;24.706;2022-09-13T04:51:53;4.17;;;2.47;;
3463;SDS011;3551;41.578;24.706;2022-09-13T04:54:21;5.53;;;2.77;;
3463;SDS011;3551;41.578;24.706;2022-09-13T04:56:48;7.13;;;3.10;;
3463;SDS011;3551;41.578;24.706;2022-09-13T04:59:17;3.90;;;2.73;;
3463;SDS011;3551;41.578;24.706;2022-09-13T05:01:43;3.10;;;2.13;;
3463;SDS011;3551;41.578;24.706;2022-09-13T05:04:10;3.80;;;2.70;;
3463;SDS011;3551;41.578;24.706;2022-09-13T05:06:37;4.50;;;3.00;;
3463;SDS011;3551;41.578;24.706;2022-09-13T05:09:04;6.90;;;4.00;;
3463;SDS011;3551;41.578;24.706;2022-09-13T05:11:32;4.23;;;2.67;;
3463;SDS011;3551;41.578;24.706;2022-09-13T05:13:59;6.90;;;2.70;;
3463;SDS011;3551;41.578;24.706;2022-09-13T05:16:28;3.50;;;2.37;;
3463;SDS011;3551;41.578;24.706;2022-09-13T05:18:56;5.90;;;2.90;;
3463;SDS011;3551;41.578;24.706;2022-09-13T05:21:24;3.00;;;2.50;;
3463;SDS011;3551;41.578;24.706;2022-09-13T05:23:53;3.70;;;2.77;;
3463;SDS011;3551;41.578;24.706;2022-09-13T05:26:22;4.27;;;2.87;;
3463;SDS011;3551;41.578;24.706;2022-09-13T05:28:50;3.77;;;2.80;;
3463;SDS011;3551;41.578;24.706;2022-09-13T05:31:24;6.77;;;2.93;;
3463;SDS011;3551;41.578;24.706;2022-09-13T05:34:07;3.07;;;2.53;;
3463;SDS011;3551;41.578;24.706;2022-09-13T05:36:47;5.07;;;2.93;;
3463;SDS011;3551;41.578;24.706;2022-09-13T05:39:15;5.83;;;2.77;;
3463;SDS011;3551;41.578;24.706;2022-09-13T05:41:43;5.40;;;3.53;;
3463;SDS011;3551;41.578;24.706;2022-09-13T05:44:10;3.47;;;2.83;;
3463;SDS011;3551;41.578;24.706;2022-09-13T05:46:37;5.37;;;2.93;;
3463;SDS011;3551;41.578;24.706;2022-09-13T05:49:06;4.90;;;3.63;;
3463;SDS011;3551;41.578;24.706;2022-09-13T05:51:33;4.10;;;2.83;;
3463;SDS011;3551;41.578;24.706;2022-09-13T05:54:00;5.93;;;2.97;;
3463;SDS011;3551;41.578;24.706;2022-09-13T05:56:28;6.07;;;3.07;;
3463;SDS011;3551;41.578;24.706;2022-09-13T05:58:56;6.50;;;2.27;;
3463;SDS011;3551;41.578;24.706;2022-09-13T06:01:24;8.30;;;4.43;;
3463;SDS011;3551;41.578;24.706;2022-09-13T06:03:52;4.40;;;3.40;;
3463;SDS011;3551;41.578;24.706;2022-09-13T06:06:22;8.53;;;5.17;;
3463;SDS011;3551;41.578;24.706;2022-09-13T06:08:50;4.60;;;3.50;;
3463;SDS011;3551;41.578;24.706;2022-09-13T06:11:18;3.33;;;2.93;;
3463;SDS011;3551;41.578;24.706;2022-09-13T06:13:45;3.70;;;2.80;;
3463;SDS011;3551;41.578;24.706;2022-09-13T06:16:12;4.50;;;3.30;;
3463;SDS011;3551;41.578;24.706;2022-09-13T06:18:40;4.37;;;3.10;;
3463;SDS011;3551;41.578;24.706;2022-09-13T06:21:07;4.43;;;3.20;;
3463;SDS011;3551;41.578;24.706;2022-09-13T06:23:37;4.70;;;3.30;;
3463;SDS011;3551;41.578;24.706;2022-09-13T06:26:05;3.50;;;3.10;;
3463;SDS011;3551;41.578;24.706;2022-09-13T06:28:34;4.40;;;3.13;;
3463;SDS011;3551;41.578;24.706;2022-09-13T06:31:02;4.07;;;2.77;;
3463;SDS011;3551;41.578;24.706;2022-09-13T06:33:30;6.33;;;3.27;;
3463;SDS011;3551;41.578;24.706;2022-09-13T06:36:01;4.00;;;2.83;;
3463;SDS011;3551;41.578;24.706;2022-09-13T06:38:30;3.40;;;2.70;;
3463;SDS011;3551;41.578;24.706;2022-09-13T06:41:02;4.43;;;3.23;;
3463;SDS011;3551;41.578;24.706;2022-09-13T06:43:30;5.37;;;4.87;;
3463;SDS011;3551;41.578;24.706;2022-09-13T06:45:59;3.83;;;2.70;;
3463;SDS011;3551;41.578;24.706;2022-09-13T06:48:29;4.20;;;2.97;;
3463;SDS011;3551;41.578;24.706;2022-09-13T06:50:57;5.50;;;3.20;;
3463;SDS011;3551;41.578;24.706;2022-09-13T06:53:25;4.53;;;3.60;;
3463;SDS011;3551;41.578;24.706;2022-09-13T06:56:00;4.10;;;3.30;;
3463;SDS011;3551;41.578;24.706;2022-09-13T06:58:29;5.00;;;2.93;;
3463;SDS011;3551;41.578;24.706;2022-09-13T07:01:04;7.77;;;3.00;;
3463;SDS011;3551;41.578;24.706;2022-09-13T07:03:34;4.27;;;2.50;;
3463;SDS011;3551;41.578;24.706;2022-09-13T07:06:05;3.43;;;2.70;;
3463;SDS011;3551;41.578;24.706;2022-09-13T07:08:33;3.13;;;2.60;;
3463;SDS011;3551;41.578;24.706;2022-09-13T07:11:01;3.97;;;3.03;;
3463;SDS011;3551;41.578;24.706;2022-09-13T07:13:28;3.93;;;3.13;;
3463;SDS011;3551;41.578;24.706;2022-09-13T07:15:55;3.33;;;2.30;;
3463;SDS011;3551;41.578;24.706;2022-09-13T07:18:22;4.33;;;2.63;;
3463;SDS011;3551;41.578;24.706;2022-09-13T07:20:49;6.33;;;2.60;;
3463;SDS011;3551;41.578;24.706;2022-09-13T07:23:16;5.33;;;2.80;;
3463;SDS011;3551;41.578;24.706;2022-09-13T07:25:43;6.83;;;2.87;;
3463;SDS011;3551;41.578;24.706;2022-09-13T07:28:20;6.23;;;2.60;;
3463;SDS011;3551;41.578;24.706;2022-09-13T07:30:47;3.57;;;2.93;;
3463;SDS011;3551;41.578;24.706;2022-09-13T07:33:14;2.53;;;2.20;;
3463;SDS011;3551;41.578;24.706;2022-09-13T07:35:41;6.77;;;2.70;;
3463;SDS011;3551;41.578;24.706;2022-09-13T07:38:08;4.43;;;2.77;;
3463;SDS011;3551;41.578;24.706;2022-09-13T07:40:35;3.10;;;2.30;;
3463;SDS011;3551;41.578;24.706;2022-09-13T07:43:02;3.93;;;2.27;;
3463;SDS011;3551;41.578;24.706;2022-09-13T07:45:31;3.80;;;2.40;;
3463;SDS011;3551;41.578;24.706;2022-09-13T07:47:58;2.90;;;2.10;;
3463;SDS011;3551;41.578;24.706;2022-09-13T07:50:26;8.90;;;2.43;;
3463;SDS011;3551;41.578;24.706;2022-09-13T07:52:53;4.93;;;2.23;;
3463;SDS011;3551;41.578;24.706;2022-09-13T07:55:19;4.40;;;2.40;;
3463;SDS011;3551;41.578;24.706;2022-09-13T07:57:47;4.83;;;1.93;;
3463;SDS011;3551;41.578;24.706;2022-09-13T08:00:14;6.20;;;2.30;;
3463;SDS011;3551;41.578;24.706;2022-09-13T08:02:42;5.13;;;2.27;;
3463;SDS011;3551;41.578;24.706;2022-09-13T08:05:09;3.57;;;2.10;;
3463;SDS011;3551;41.578;24.706;2022-09-13T08:07:39;3.77;;;2.60;;
3463;SDS011;3551;41.578;24.706;2022-09-13T08:10:06;3.20;;;2.10;;
3463;SDS011;3551;41.578;24.706;2022-09-13T08:12:34;3.50;;;2.50;;
3463;SDS011;3551;41.578;24.706;2022-09-13T08:15:01;5.37;;;2.50;;
3463;SDS011;3551;41.578;24.706;2022-09-13T08:17:28;5.80;;;2.07;;
3463;SDS011;3551;41.578;24.706;2022-09-13T08:19:57;2.50;;;1.87;;
3463;SDS011;3551;41.578;24.706;2022-09-13T08:22:36;2.67;;;1.90;;
3463;SDS011;3551;41.578;24.706;2022-09-13T08:25:03;6.00;;;2.70;;
3463;SDS011;3551;41.578;24.706;2022-09-13T08:27:30;3.67;;;2.37;;
3463;SDS011;3551;41.578;24.706;2022-09-13T08:29:57;2.80;;;2.10;;
3463;SDS011;3551;41.578;24.706;2022-09-13T08:32:24;3.37;;;2.00;;
3463;SDS011;3551;41.578;24.706;2022-09-13T08:34:51;6.03;;;1.90;;
3463;SDS011;3551;41.578;24.706;2022-09-13T08:37:20;3.93;;;2.40;;
3463;SDS011;3551;41.578;24.706;2022-09-13T08:39:46;2.60;;;2.00;;
3463;SDS011;3551;41.578;24.706;2022-09-13T08:42:19;2.50;;;1.73;;
3463;SDS011;3551;41.578;24.706;2022-09-13T08:44:53;8.47;;;1.67;;
3463;SDS011;3551;41.578;24.706;2022-09-13T08:47:34;3.87;;;2.20;;
3463;SDS011;3551;41.578;24.706;2022-09-13T08:50:10;2.10;;;1.40;;
3463;SDS011;3551;41.578;24.706;2022-09-13T08:55:48;2.97;;;1.30;;
3463;SDS011;3551;41.578;24.706;2022-09-13T09:01:13;4.53;;;1.70;;
3463;SDS011;3551;41.578;24.706;2022-09-13T09:03:50;5.20;;;1.63;;
3463;SDS011;3551;41.578;24.706;2022-09-13T09:06:24;4.73;;;1.60;;
3463;SDS011;3551;41.578;24.706;2022-09-13T09:08:53;2.23;;;1.50;;
3463;SDS011;3551;41.578;24.706;2022-09-13T09:11:26;3.90;;;1.57;;
3463;SDS011;3551;41.578;24.706;2022-09-13T09:14:01;2.40;;;1.70;;
3463;SDS011;3551;41.578;24.706;2022-09-13T09:16:34;3.33;;;1.87;;
3463;SDS011;3551;41.578;24.706;2022-09-13T09:19:10;2.53;;;1.53;;
3463;SDS011;3551;41.578;24.706;2022-09-13T09:21:42;3.17;;;2.07;;
3463;SDS011;3551;41.578;24.706;2022-09-13T09:24:15;4.27;;;1.80;;
3463;SDS011;3551;41.578;24.706;2022-09-13T09:26:45;4.17;;;1.73;;
3463;SDS011;3551;41.578;24.706;2022-09-13T09:29:15;5.40;;;1.70;;
3463;SDS011;3551;41.578;24.706;2022-09-13T09:31:44;2.00;;;1.40;;
3463;SDS011;3551;41.578;24.706;2022-09-13T09:34:20;3.57;;;1.67;;
3463;SDS011;3551;41.578;24.706;2022-09-13T09:36:59;3.80;;;2.10;;
3463;SDS011;3551;41.578;24.706;2022-09-13T09:39:36;2.50;;;1.77;;
3463;SDS011;3551;41.578;24.706;2022-09-13T09:42:06;2.30;;;1.50;;
3463;SDS011;3551;41.578;24.706;2022-09-13T09:44:39;4.27;;;1.90;;
3463;SDS011;3551;41.578;24.706;2022-09-13T09:47:10;2.30;;;1.90;;
3463;SDS011;3551;41.578;24.706;2022-09-13T09:49:44;2.43;;;1.63;;
3463;SDS011;3551;41.578;24.706;2022-09-13T09:52:30;2.53;;;1.70;;
3463;SDS011;3551;41.578;24.706;2022-09-13T09:55:09;3.50;;;1.60;;
3463;SDS011;3551;41.578;24.706;2022-09-13T09:57:48;4.63;;;2.23;;
3463;SDS011;3551;41.578;24.706;2022-09-13T10:00:17;2.33;;;1.70;;
3463;SDS011;3551;41.578;24.706;2022-09-13T10:02:45;4.30;;;1.80;;
3463;SDS011;3551;41.578;24.706;2022-09-13T10:05:16;3.07;;;1.57;;
3463;SDS011;3551;41.578;24.706;2022-09-13T10:07:48;2.47;;;1.57;;
3463;SDS011;3551;41.578;24.706;2022-09-13T10:10:24;3.73;;;1.80;;
3463;SDS011;3551;41.578;24.706;2022-09-13T10:12:55;4.00;;;2.07;;
3463;SDS011;3551;41.578;24.706;2022-09-13T10:15:24;2.90;;;1.70;;
3463;SDS011;3551;41.578;24.706;2022-09-13T10:18:04;2.60;;;1.80;;
3463;SDS011;3551;41.578;24.706;2022-09-13T10:20:39;3.47;;;1.60;;
3463;SDS011;3551;41.578;24.706;2022-09-13T10:25:57;4.30;;;1.40;;
3463;SDS011;3551;41.578;24.706;2022-09-13T10:28:29;3.03;;;1.93;;
3463;SDS011;3551;41.578;24.706;2022-09-13T10:30:58;2.87;;;1.50;;
3463;SDS011;3551;41.578;24.706;2022-09-13T10:33:29;3.40;;;1.83;;
3463;SDS011;3551;41.578;24.706;2022-09-13T10:35:59;4.13;;;1.43;;
3463;SDS011;3551;41.578;24.706;2022-09-13T10:38:30;2.10;;;1.50;;
3463;SDS011;3551;41.578;24.706;2022-09-13T10:41:03;4.27;;;1.53;;
3463;SDS011;3551;41.578;24.706;2022-09-13T10:43:33;2.30;;;1.80;;
3463;SDS011;3551;41.578;24.706;2022-09-13T10:46:02;3.90;;;2.00;;
3463;SDS011;3551;41.578;24.706;2022-09-13T10:48:42;3.07;;;2.27;;
3463;SDS011;3551;41.578;24.706;2022-09-13T10:51:19;2.50;;;1.90;;
3463;SDS011;3551;41.578;24.706;2022-09-13T10:54:05;4.93;;;2.47;;
3463;SDS011;3551;41.578;24.706;2022-09-13T10:56:36;3.00;;;1.70;;
3463;SDS011;3551;41.578;24.706;2022-09-13T10:59:13;4.60;;;2.27;;
3463;SDS011;3551;41.578;24.706;2022-09-13T11:04:55;7.27;;;1.80;;
3463;SDS011;3551;41.578;24.706;2022-09-13T11:07:46;3.77;;;1.70;;
3463;SDS011;3551;41.578;24.706;2022-09-13T11:10:26;2.90;;;2.00;;
3463;SDS011;3551;41.578;24.706;2022-09-13T11:13:01;3.00;;;2.30;;
3463;SDS011;3551;41.578;24.706;2022-09-13T11:15:39;3.80;;;2.20;;
3463;SDS011;3551;41.578;24.706;2022-09-13T11:18:28;3.07;;;2.43;;
3463;SDS011;3551;41.578;24.706;2022-09-13T11:21:12;3.73;;;1.83;;
3463;SDS011;3551;41.578;24.706;2022-09-13T11:26:49;3.00;;;2.10;;
3463;SDS011;3551;41.578;24.706;2022-09-13T11:29:40;3.50;;;2.73;;
3463;SDS011;3551;41.578;24.706;2022-09-13T11:32:21;2.40;;;2.17;;
3463;SDS011;3551;41.578;24.706;2022-09-13T11:37:53;2.67;;;2.03;;
3463;SDS011;3551;41.578;24.706;2022-09-13T11:40:39;3.43;;;2.60;;
3463;SDS011;3551;41.578;24.706;2022-09-13T11:43:18;5.10;;;2.50;;
3463;SDS011;3551;41.578;24.706;2022-09-13T11:46:00;3.57;;;2.40;;
3463;SDS011;3551;41.578;24.706;2022-09-13T11:48:38;3.33;;;2.37;;
3463;SDS011;3551;41.578;24.706;2022-09-13T11:51:20;2.80;;;2.43;;
3463;SDS011;3551;41.578;24.706;2022-09-13T11:53:58;3.50;;;2.50;;
3463;SDS011;3551;41.578;24.706;2022-09-13T11:56:34;16.63;;;10.20;;
3463;SDS011;3551;41.578;24.706;2022-09-13T11:59:08;3.40;;;2.83;;
3463;SDS011;3551;41.578;24.706;2022-09-13T12:01:44;5.23;;;2.63;;
3463;SDS011;3551;41.578;24.706;2022-09-13T12:04:16;4.57;;;2.67;;
3463;SDS011;3551;41.578;24.706;2022-09-13T12:06:47;2.60;;;2.27;;
3463;SDS011;3551;41.578;24.706;2022-09-13T12:09:21;2.40;;;1.90;;
3463;SDS011;3551;41.578;24.706;2022-09-13T12:11:54;3.37;;;2.50;;
3463;SDS011;3551;41.578;24.706;2022-09-13T12:14:29;3.47;;;2.20;;
3463;SDS011;3551;41.578;24.706;2022-09-13T12:17:06;2.70;;;1.80;;
3463;SDS011;3551;41.578;24.706;2022-09-13T12:19:42;2.50;;;2.03;;
3463;SDS011;3551;41.578;24.706;2022-09-13T12:22:12;2.60;;;2.10;;
3463;SDS011;3551;41.578;24.706;2022-09-13T12:24:41;2.50;;;2.20;;
3463;SDS011;3551;41.578;24.706;2022-09-13T12:27:11;6.43;;;2.17;;
3463;SDS011;3551;41.578;24.706;2022-09-13T12:29:49;3.60;;;1.90;;
3463;SDS011;3551;41.578;24.706;2022-09-13T12:32:19;2.40;;;1.97;;
3463;SDS011;3551;41.578;24.706;2022-09-13T12:34:49;3.13;;;2.33;;
3463;SDS011;3551;41.578;24.706;2022-09-13T12:37:28;2.20;;;1.57;;
3463;SDS011;3551;41.578;24.706;2022-09-13T12:40:18;3.50;;;1.83;;
3463;SDS011;3551;41.578;24.706;2022-09-13T12:43:11;2.60;;;1.80;;
3463;SDS011;3551;41.578;24.706;2022-09-13T12:45:52;2.43;;;1.60;;
3463;SDS011;3551;41.578;24.706;2022-09-13T12:48:39;2.47;;;1.60;;
3463;SDS011;3551;41.578;24.706;2022-09-13T12:51:29;5.23;;;1.80;;
3463;SDS011;3551;41.578;24.706;2022-09-13T12:54:14;2.40;;;1.60;;
3463;SDS011;3551;41.578;24.706;2022-09-13T12:56:54;3.43;;;2.00;;
3463;SDS011;3551;41.578;24.706;2022-09-13T12:59:43;4.63;;;1.70;;
3463;SDS011;3551;41.578;24.706;2022-09-13T13:02:36;2.77;;;1.70;;
3463;SDS011;3551;41.578;24.706;2022-09-13T13:05:16;2.70;;;1.90;;
3463;SDS011;3551;41.578;24.706;2022-09-13T13:07:49;4.20;;;1.93;;
3463;SDS011;3551;41.578;24.706;2022-09-13T13:10:25;2.40;;;1.70;;
3463;SDS011;3551;41.578;24.706;2022-09-13T13:12:56;2.53;;;1.80;;
3463;SDS011;3551;41.578;24.706;2022-09-13T13:16:02;2.67;;;1.70;;
3463;SDS011;3551;41.578;24.706;2022-09-13T13:18:42;2.20;;;1.43;;
3463;SDS011;3551;41.578;24.706;2022-09-13T13:27:32;2.70;;;1.70;;
3463;SDS011;3551;41.578;24.706;2022-09-13T13:33:24;2.50;;;1.77;;
3463;SDS011;3551;41.578;24.706;2022-09-13T13:35:53;2.60;;;1.50;;
3463;SDS011;3551;41.578;24.706;2022-09-13T13:41:36;4.20;;;1.70;;
3463;SDS011;3551;41.578;24.706;2022-09-13T13:50:32;3.90;;;1.70;;
3463;SDS011;3551;41.578;24.706;2022-09-13T13:53:13;2.30;;;1.43;;
3463;SDS011;3551;41.578;24.706;2022-09-13T13:55:48;2.97;;;1.70;;
3463;SDS011;3551;41.578;24.706;2022-09-13T13:58:36;3.57;;;1.67;;
3463;SDS011;3551;41.578;24.706;2022-09-13T14:01:13;4.07;;;1.30;;
3463;SDS011;3551;41.578;24.706;2022-09-13T14:06:46;2.33;;;1.87;;
3463;SDS011;3551;41.578;24.706;2022-09-13T14:09:25;2.30;;;1.60;;
3463;SDS011;3551;41.578;24.706;2022-09-13T14:12:00;2.43;;;1.70;;
3463;SDS011;3551;41.578;24.706;2022-09-13T14:14:43;3.43;;;1.90;;
3463;SDS011;3551;41.578;24.706;2022-09-13T14:17:29;2.93;;;1.90;;
3463;SDS011;3551;41.578;24.706;2022-09-13T14:20:11;2.83;;;1.77;;
3463;SDS011;3551;41.578;24.706;2022-09-13T14:22:43;4.83;;;2.73;;
3463;SDS011;3551;41.578;24.706;2022-09-13T14:25:15;2.50;;;1.60;;
3463;SDS011;3551;41.578;24.706;2022-09-13T14:27:51;2.40;;;1.50;;
3463;SDS011;3551;41.578;24.706;2022-09-13T14:30:23;2.30;;;1.70;;
3463;SDS011;3551;41.578;24.706;2022-09-13T14:32:53;3.83;;;1.90;;
3463;SDS011;3551;41.578;24.706;2022-09-13T14:35:23;3.23;;;1.80;;
3463;SDS011;3551;41.578;24.706;2022-09-13T14:37:53;2.67;;;1.50;;
3463;SDS011;3551;41.578;24.706;2022-09-13T14:40:22;2.50;;;1.70;;
3463;SDS011;3551;41.578;24.706;2022-09-13T14:42:53;4.27;;;2.80;;
3463;SDS011;3551;41.578;24.706;2022-09-13T14:45:22;11.63;;;7.73;;
3463;SDS011;3551;41.578;24.706;2022-09-13T14:47:53;3.30;;;2.40;;
3463;SDS011;3551;41.578;24.706;2022-09-13T14:50:24;2.50;;;1.60;;
3463;SDS011;3551;41.578;24.706;2022-09-13T14:52:55;3.70;;;1.57;;
3463;SDS011;3551;41.578;24.706;2022-09-13T14:55:25;12.00;;;7.87;;
3463;SDS011;3551;41.578;24.706;2022-09-13T14:57:58;2.30;;;1.50;;
3463;SDS011;3551;41.578;24.706;2022-09-13T15:00:29;2.57;;;1.53;;
3463;SDS011;3551;41.578;24.706;2022-09-13T15:03:00;2.27;;;1.50;;
3463;SDS011;3551;41.578;24.706;2022-09-13T15:05:31;2.83;;;1.60;;
3463;SDS011;3551;41.578;24.706;2022-09-13T15:07:59;2.57;;;1.80;;
3463;SDS011;3551;41.578;24.706;2022-09-13T15:10:46;2.40;;;1.57;;
3463;SDS011;3551;41.578;24.706;2022-09-13T15:13:16;4.63;;;1.80;;
3463;SDS011;3551;41.578;24.706;2022-09-13T15:15:43;2.70;;;1.60;;
3463;SDS011;3551;41.578;24.706;2022-09-13T15:18:22;2.47;;;1.57;;
3463;SDS011;3551;41.578;24.706;2022-09-13T15:20:50;2.30;;;1.50;;
3463;SDS011;3551;41.578;24.706;2022-09-13T15:23:21;2.40;;;1.70;;
3463;SDS011;3551;41.578;24.706;2022-09-13T15:25:51;3.20;;;1.70;;
3463;SDS011;3551;41.578;24.706;2022-09-13T15:28:23;4.57;;;2.07;;
3463;SDS011;3551;41.578;24.706;2022-09-13T15:30:52;2.30;;;1.70;;
3463;SDS011;3551;41.578;24.706;2022-09-13T15:33:25;3.80;;;1.87;;
3463;SDS011;3551;41.578;24.706;2022-09-13T15:38:54;3.30;;;1.63;;
3463;SDS011;3551;41.578;24.706;2022-09-13T15:41:27;3.37;;;1.90;;
3463;SDS011;3551;41.578;24.706;2022-09-13T15:43:57;2.27;;;1.60;;
3463;SDS011;3551;41.578;24.706;2022-09-13T15:46:24;4.93;;;2.07;;
3463;SDS011;3551;41.578;24.706;2022-09-13T15:48:52;2.80;;;2.00;;
3463;SDS011;3551;41.578;24.706;2022-09-13T15:51:21;3.17;;;1.77;;
3463;SDS011;3551;41.578;24.706;2022-09-13T15:53:48;5.60;;;2.00;;
3463;SDS011;3551;41.578;24.706;2022-09-13T15:56:16;3.60;;;2.37;;
3463;SDS011;3551;41.578;24.706;2022-09-13T15:58:44;2.50;;;1.80;;
3463;SDS011;3551;41.578;24.706;2022-09-13T16:01:13;4.23;;;1.80;;
3463;SDS011;3551;41.578;24.706;2022-09-13T16:03:41;2.50;;;1.60;;
3463;SDS011;3551;41.578;24.706;2022-09-13T16:06:09;2.70;;;1.60;;
3463;SDS011;3551;41.578;24.706;2022-09-13T16:08:36;3.57;;;1.97;;
3463;SDS011;3551;41.578;24.706;2022-09-13T16:11:04;2.60;;;1.90;;
3463;SDS011;3551;41.578;24.706;2022-09-13T16:13:32;4.40;;;1.70;;
3463;SDS011;3551;41.578;24.706;2022-09-13T16:16:00;3.00;;;2.10;;
3463;SDS011;3551;41.578;24.706;2022-09-13T16:18:30;3.50;;;2.10;;
3463;SDS011;3551;41.578;24.706;2022-09-13T16:20:57;2.50;;;2.00;;
3463;SDS011;3551;41.578;24.706;2022-09-13T16:23:24;3.43;;;1.90;;
3463;SDS011;3551;41.578;24.706;2022-09-13T16:25:51;11.50;;;2.13;;